Time;durP1;ratioP1;P1;durP2;ratioP2;P2;SDS_P1;SDS_P2;PMS_P1;PMS_P2;Temp;Humidity;BMP_temperature;BMP_pressure;BME280_temperature;BME280_humidity;BME280_pressure;Samples;Min_cycle;Max_cycle;Signal;HPM_P1;HPM_P2
2022/02/16 00:00:58;;;;;;;2.93;1.00;;;7.20;99.90;;;;;;5033183;28;20230;-61
2022/02/16 00:03:25;;;;;;;2.90;1.13;;;7.20;99.90;;;;;;5033244;28;20560;-60
2022/02/16 00:05:53;;;;;;;2.17;0.97;;;7.20;99.90;;;;;;5032922;28;20206;-60
2022/02/16 00:08:20;;;;;;;1.83;0.90;;;7.20;99.90;;;;;;5033432;28;20217;-59
2022/02/16 00:10:47;;;;;;;3.77;1.20;;;7.30;99.90;;;;;;5032975;28;20246;-59
2022/02/16 00:13:13;;;;;;;3.87;1.00;;;7.30;99.90;;;;;;5033057;28;20568;-60
2022/02/16 00:15:41;;;;;;;2.63;1.10;;;7.40;99.90;;;;;;5032581;28;20297;-60
2022/02/16 00:18:08;;;;;;;2.70;0.83;;;7.50;99.90;;;;;;5033196;28;20321;-59
2022/02/16 00:20:35;;;;;;;2.83;0.97;;;7.50;99.90;;;;;;5032918;28;20233;-59
2022/02/16 00:23:03;;;;;;;2.37;1.20;;;7.40;99.90;;;;;;5031971;28;20548;-60
2022/02/16 00:25:30;;;;;;;2.83;1.00;;;7.30;99.90;;;;;;5032837;28;20209;-60
2022/02/16 00:27:56;;;;;;;7.43;1.33;;;7.30;99.90;;;;;;5032705;28;20600;-60
2022/02/16 00:30:24;;;;;;;2.40;0.83;;;7.20;99.90;;;;;;5032694;28;20206;-59
2022/02/16 00:32:51;;;;;;;2.07;0.67;;;7.20;99.90;;;;;;5032693;28;20588;-59
2022/02/16 00:35:18;;;;;;;2.87;1.10;;;7.30;99.90;;;;;;5032573;28;20206;-60
2022/02/16 00:37:45;;;;;;;2.60;0.97;;;7.30;99.90;;;;;;5032726;28;20232;-60
2022/02/16 00:40:14;;;;;;;5.50;0.70;;;7.30;99.90;;;;;;5032376;28;20708;-59
2022/02/16 00:42:41;;;;;;;2.23;1.10;;;7.20;99.90;;;;;;5032509;28;20603;-60
2022/02/16 00:45:08;;;;;;;3.83;1.00;;;7.20;99.90;;;;;;5032551;28;20213;-60
2022/02/16 00:47:35;;;;;;;2.23;0.93;;;7.30;99.90;;;;;;5032703;28;20275;-59
2022/02/16 00:50:02;;;;;;;2.00;0.90;;;7.20;99.90;;;;;;5032653;28;20203;-59
2022/02/16 00:52:29;;;;;;;2.90;1.03;;;7.30;99.90;;;;;;5032438;28;20206;-60
2022/02/16 00:54:55;;;;;;;2.27;1.10;;;7.40;99.90;;;;;;5032128;28;20673;-59
2022/02/16 00:57:24;;;;;;;3.27;0.93;;;7.40;99.90;;;;;;5032326;28;20256;-59
2022/02/16 00:59:50;;;;;;;2.63;0.73;;;7.40;99.90;;;;;;5032499;28;20325;-59
2022/02/16 01:02:17;;;;;;;3.50;0.80;;;7.50;99.90;;;;;;5032392;28;20260;-59
2022/02/16 01:04:44;;;;;;;2.57;1.10;;;7.60;99.90;;;;;;5032113;28;20670;-59
2022/02/16 01:07:10;;;;;;;2.63;1.30;;;7.70;99.90;;;;;;5032022;28;20233;-59
2022/02/16 01:09:37;;;;;;;4.70;1.13;;;7.80;99.90;;;;;;5032186;28;20202;-59
2022/02/16 01:12:04;;;;;;;2.30;1.00;;;7.80;99.90;;;;;;5032562;28;20206;-59
2022/02/16 01:14:33;;;;;;;1.93;0.83;;;7.90;99.90;;;;;;5032460;28;20221;-60
2022/02/16 01:17:00;;;;;;;1.70;0.77;;;7.90;99.90;;;;;;5032174;28;20252;-60
2022/02/16 01:19:26;;;;;;;1.67;1.10;;;7.90;99.90;;;;;;5032192;28;20206;-59
2022/02/16 01:21:53;;;;;;;1.70;0.87;;;7.90;99.90;;;;;;5032014;28;20611;-60
2022/02/16 01:24:20;;;;;;;4.13;1.17;;;8.00;99.90;;;;;;5032014;28;20210;-59
2022/02/16 01:26:47;;;;;;;4.30;0.93;;;8.00;99.90;;;;;;5031690;28;20234;-59
2022/02/16 01:29:14;;;;;;;3.27;1.00;;;8.00;99.90;;;;;;5032445;28;20214;-59
2022/02/16 01:31:42;;;;;;;2.57;1.00;;;8.10;99.90;;;;;;5032289;28;20209;-59
2022/02/16 01:34:09;;;;;;;4.40;1.10;;;8.00;99.90;;;;;;5034404;28;20206;-59
2022/02/16 01:36:36;;;;;;;2.87;1.07;;;8.10;99.90;;;;;;5036126;28;20320;-59
2022/02/16 01:39:04;;;;;;;3.07;1.00;;;8.10;99.90;;;;;;5035963;28;20216;-60
2022/02/16 01:41:30;;;;;;;3.47;1.10;;;8.10;99.90;;;;;;5036451;28;20230;-59
2022/02/16 01:43:59;;;;;;;1.97;0.93;;;8.20;99.90;;;;;;5036071;28;20210;-59
2022/02/16 01:46:26;;;;;;;1.60;0.73;;;8.20;99.90;;;;;;5035857;28;20234;-59
2022/02/16 01:48:54;;;;;;;1.90;0.90;;;8.10;99.90;;;;;;5035863;28;20241;-59
2022/02/16 01:51:21;;;;;;;2.47;1.07;;;8.10;99.90;;;;;;5035709;28;20206;-59
2022/02/16 01:53:48;;;;;;;2.63;1.00;;;8.10;99.90;;;;;;5035608;28;20214;-59
2022/02/16 01:56:15;;;;;;;2.00;0.83;;;8.10;99.90;;;;;;5035527;28;20222;-59
2022/02/16 01:58:43;;;;;;;1.70;0.70;;;8.10;99.90;;;;;;5035755;28;20215;-59
2022/02/16 02:01:10;;;;;;;1.53;0.80;;;8.10;99.90;;;;;;5035530;28;20296;-59
2022/02/16 02:03:36;;;;;;;3.70;1.23;;;8.10;99.90;;;;;;5035518;28;20210;-60
2022/02/16 02:06:04;;;;;;;2.77;1.10;;;8.00;99.90;;;;;;5034952;28;20728;-59
2022/02/16 02:08:31;;;;;;;3.93;0.90;;;8.10;99.90;;;;;;5035712;28;20206;-59
2022/02/16 02:10:58;;;;;;;3.73;1.00;;;8.10;99.90;;;;;;5035550;28;20214;-59
2022/02/16 02:13:25;;;;;;;2.93;1.00;;;8.10;99.90;;;;;;5035381;28;20572;-58
2022/02/16 02:15:52;;;;;;;3.00;0.97;;;8.10;99.90;;;;;;5036011;28;20286;-59
2022/02/16 02:18:20;;;;;;;2.87;0.90;;;8.20;99.90;;;;;;5035803;28;20297;-59
2022/02/16 02:20:48;;;;;;;3.93;1.00;;;8.20;99.90;;;;;;5035656;28;20222;-59
2022/02/16 02:23:15;;;;;;;4.77;1.10;;;8.20;99.90;;;;;;5036385;28;20210;-59
2022/02/16 02:25:47;;;;;;;3.17;0.90;;;8.20;99.90;;;;;;5035774;28;20233;-59
2022/02/16 02:28:14;;;;;;;1.93;0.87;;;8.20;99.90;;;;;;5036026;28;20202;-59
2022/02/16 02:30:40;;;;;;;1.40;0.70;;;8.30;99.90;;;;;;5035733;28;20225;-59
2022/02/16 02:33:07;;;;;;;2.53;0.90;;;8.30;99.90;;;;;;5035518;28;20205;-59
2022/02/16 02:35:34;;;;;;;2.30;0.90;;;8.30;99.90;;;;;;5035295;28;20210;-59
2022/02/16 02:38:02;;;;;;;2.17;0.90;;;8.30;99.90;;;;;;5035198;28;20226;-59
2022/02/16 02:40:29;;;;;;;2.47;1.10;;;8.30;99.90;;;;;;5034938;28;20226;-59
2022/02/16 02:42:55;;;;;;;2.57;0.67;;;8.30;99.90;;;;;;5034928;28;20206;-59
2022/02/16 02:45:22;;;;;;;3.63;0.97;;;8.20;99.90;;;;;;5033330;28;20210;-59
2022/02/16 02:47:49;;;;;;;3.57;0.80;;;8.20;99.90;;;;;;5034557;28;20233;-59
2022/02/16 02:50:16;;;;;;;3.87;1.10;;;8.10;99.90;;;;;;5034772;28;20202;-60
2022/02/16 02:52:42;;;;;;;2.10;0.97;;;8.10;99.90;;;;;;5034883;28;20206;-58
2022/02/16 02:55:13;;;;;;;2.40;0.90;;;8.10;99.90;;;;;;5034310;28;20772;-59
2022/02/16 02:57:40;;;;;;;1.57;0.90;;;8.20;99.90;;;;;;5034366;28;20718;-61
2022/02/16 03:00:10;;;;;;;2.63;0.60;;;8.20;99.90;;;;;;5035203;28;20210;-59
2022/02/16 03:02:36;;;;;;;2.83;0.80;;;8.30;99.90;;;;;;5034582;28;20221;-59
2022/02/16 03:05:04;;;;;;;3.50;1.00;;;8.30;99.90;;;;;;5034419;28;20206;-60
2022/02/16 03:07:30;;;;;;;1.40;0.60;;;8.30;99.90;;;;;;5034806;28;20238;-60
2022/02/16 03:09:57;;;;;;;2.50;1.10;;;8.30;99.90;;;;;;5034429;28;20210;-60
2022/02/16 03:12:25;;;;;;;4.37;1.13;;;8.40;99.90;;;;;;5034524;28;20210;-59
2022/02/16 03:14:52;;;;;;;1.83;0.67;;;8.40;99.90;;;;;;5034438;28;20210;-60
2022/02/16 03:17:19;;;;;;;4.27;0.90;;;8.40;99.90;;;;;;5034508;28;20706;-60
2022/02/16 03:19:45;;;;;;;1.40;0.87;;;8.30;99.90;;;;;;5034843;28;20293;-59
2022/02/16 03:22:12;;;;;;;2.13;0.90;;;8.30;99.90;;;;;;5034661;28;20246;-59
2022/02/16 03:24:39;;;;;;;1.67;0.67;;;8.30;99.90;;;;;;5034246;28;20214;-59
2022/02/16 03:27:06;;;;;;;2.80;0.73;;;8.20;99.90;;;;;;5033900;28;20229;-59
2022/02/16 03:29:34;;;;;;;2.00;0.80;;;8.30;99.90;;;;;;5033881;28;20206;-60
2022/02/16 03:32:00;;;;;;;1.70;0.53;;;8.30;99.90;;;;;;5034282;28;20209;-60
2022/02/16 03:34:27;;;;;;;3.43;0.90;;;8.30;99.90;;;;;;5034314;28;20221;-59
2022/02/16 03:36:54;;;;;;;2.50;0.60;;;8.40;99.90;;;;;;5033670;28;20230;-59
2022/02/16 03:39:20;;;;;;;1.40;0.70;;;8.40;99.90;;;;;;5033737;28;20203;-59
2022/02/16 03:41:47;;;;;;;1.80;0.53;;;8.40;99.90;;;;;;5033758;28;20272;-59
2022/02/16 03:44:14;;;;;;;1.97;0.87;;;8.40;99.90;;;;;;5033784;28;20624;-59
2022/02/16 03:46:43;;;;;;;2.73;0.67;;;8.40;99.90;;;;;;5033511;28;20712;-59
2022/02/16 03:49:10;;;;;;;1.30;0.70;;;8.40;99.90;;;;;;5033945;28;20206;-59
2022/02/16 03:51:36;;;;;;;2.03;0.73;;;8.50;99.90;;;;;;5034054;28;20813;-59
2022/02/16 03:54:03;;;;;;;5.60;0.87;;;8.60;99.90;;;;;;5034166;28;20301;-59
2022/02/16 03:56:30;;;;;;;1.67;0.60;;;8.60;99.90;;;;;;5033529;28;20639;-59
2022/02/16 03:58:57;;;;;;;0.93;0.50;;;8.50;99.90;;;;;;5034145;28;20210;-59
2022/02/16 04:01:23;;;;;;;1.10;0.60;;;8.40;99.90;;;;;;5033599;28;20222;-59
2022/02/16 04:03:51;;;;;;;0.97;0.60;;;8.40;99.90;;;;;;5033541;28;20206;-60
2022/02/16 04:06:18;;;;;;;1.77;0.73;;;8.50;99.90;;;;;;5033962;28;20234;-60
2022/02/16 04:08:45;;;;;;;2.07;0.63;;;8.50;99.90;;;;;;5033606;28;20622;-59
2022/02/16 04:11:12;;;;;;;2.13;0.80;;;8.60;99.90;;;;;;5033127;28;20206;-59
2022/02/16 04:13:39;;;;;;;1.33;0.50;;;8.60;99.90;;;;;;5033528;28;20203;-59
2022/02/16 04:16:06;;;;;;;2.43;0.53;;;8.60;99.90;;;;;;5035705;28;20207;-60
2022/02/16 04:18:33;;;;;;;1.13;0.50;;;8.50;99.90;;;;;;5034179;28;20207;-60
2022/02/16 04:21:01;;;;;;;1.30;0.50;;;8.60;99.90;;;;;;5032994;28;20883;-59
2022/02/16 04:23:27;;;;;;;3.90;0.67;;;8.60;99.90;;;;;;5033180;28;20206;-59
2022/02/16 04:25:54;;;;;;;2.77;0.73;;;8.50;99.90;;;;;;5032908;28;20203;-59
2022/02/16 04:28:21;;;;;;;1.63;0.60;;;8.50;99.90;;;;;;5033164;28;20209;-59
2022/02/16 04:30:48;;;;;;;2.30;0.80;;;8.60;99.90;;;;;;5033108;28;20202;-60
2022/02/16 04:33:15;;;;;;;1.53;0.50;;;8.60;99.90;;;;;;5032871;28;20202;-59
2022/02/16 04:35:42;;;;;;;2.57;0.90;;;8.70;99.90;;;;;;5032751;28;20674;-59
2022/02/16 04:38:10;;;;;;;1.43;0.50;;;8.70;99.90;;;;;;5033230;28;20241;-59
2022/02/16 04:40:37;;;;;;;1.80;0.60;;;8.70;99.90;;;;;;5034307;28;20217;-60
2022/02/16 04:43:05;;;;;;;1.63;0.60;;;8.70;99.90;;;;;;5034695;28;20206;-59
2022/02/16 04:45:32;;;;;;;0.33;0.30;;;8.80;99.90;;;;;;5034101;28;20216;-59
2022/02/16 04:47:59;;;;;;;1.80;0.67;;;8.90;99.90;;;;;;5034035;28;20234;-59
2022/02/16 04:50:26;;;;;;;1.00;0.40;;;8.80;99.90;;;;;;5033355;28;20214;-60
2022/02/16 04:52:54;;;;;;;1.03;0.40;;;8.90;99.90;;;;;;5032955;28;20209;-59
2022/02/16 04:55:23;;;;;;;1.27;0.50;;;8.90;99.90;;;;;;5032829;28;20206;-60
2022/02/16 04:57:51;;;;;;;0.90;0.60;;;8.90;99.90;;;;;;5032695;28;20435;-60
2022/02/16 05:00:18;;;;;;;2.10;0.47;;;8.90;99.90;;;;;;5032863;28;20206;-60
2022/02/16 05:02:45;;;;;;;2.43;0.30;;;8.90;99.90;;;;;;5032293;28;20713;-60
2022/02/16 05:05:12;;;;;;;2.00;0.60;;;8.90;99.90;;;;;;5032134;28;20210;-60
2022/02/16 05:07:38;;;;;;;3.97;2.57;;;8.90;99.90;;;;;;5031919;28;20531;-59
2022/02/16 05:10:06;;;;;;;1.27;0.77;;;8.90;99.90;;;;;;5032366;28;20268;-59
2022/02/16 05:12:35;;;;;;;0.70;0.50;;;9.00;99.90;;;;;;5032354;28;20670;-60
2022/02/16 05:15:01;;;;;;;1.90;0.30;;;9.00;99.90;;;;;;5032822;28;20202;-60
2022/02/16 05:17:29;;;;;;;0.40;0.20;;;9.00;99.90;;;;;;5032804;28;20708;-60
2022/02/16 05:19:56;;;;;;;0.43;0.20;;;9.00;99.90;;;;;;5031968;28;20214;-59
2022/02/16 05:22:23;;;;;;;1.30;0.40;;;9.00;99.90;;;;;;5032292;28;20229;-60
2022/02/16 05:24:50;;;;;;;0.60;0.40;;;9.10;99.90;;;;;;5032591;28;20211;-60
2022/02/16 05:27:16;;;;;;;0.60;0.40;;;9.00;99.90;;;;;;5032209;28;20308;-59
2022/02/16 05:29:44;;;;;;;0.30;0.20;;;9.10;99.90;;;;;;5032440;28;20209;-59
2022/02/16 05:32:11;;;;;;;0.93;0.60;;;9.10;99.90;;;;;;5032342;28;20206;-60
2022/02/16 05:34:38;;;;;;;0.43;0.30;;;9.10;99.90;;;;;;5032585;28;20202;-60
2022/02/16 05:37:04;;;;;;;1.40;0.80;;;9.00;99.90;;;;;;5032833;28;20280;-59
2022/02/16 05:39:31;;;;;;;1.83;0.70;;;9.00;99.90;;;;;;5032229;28;20210;-58
2022/02/16 05:41:58;;;;;;;0.57;0.40;;;9.10;99.90;;;;;;5031945;28;20229;-62
2022/02/16 05:44:24;;;;;;;0.73;0.30;;;9.10;99.90;;;;;;5032022;28;20237;-59
2022/02/16 05:46:53;;;;;;;1.00;0.50;;;9.20;99.90;;;;;;5031388;28;20608;-58
2022/02/16 05:49:19;;;;;;;0.37;0.20;;;9.10;99.90;;;;;;5032336;28;20264;-58
2022/02/16 05:51:46;;;;;;;1.20;0.60;;;9.00;99.90;;;;;;5032549;28;20210;-61
2022/02/16 05:54:13;;;;;;;1.50;0.77;;;9.00;99.90;;;;;;5032069;28;20202;-60
2022/02/16 05:56:40;;;;;;;0.73;0.40;;;9.10;99.90;;;;;;5031543;28;20223;-60
2022/02/16 05:59:06;;;;;;;0.80;0.50;;;9.10;99.90;;;;;;5031767;28;20213;-61
2022/02/16 06:01:33;;;;;;;1.33;0.40;;;9.20;99.90;;;;;;5031655;28;20257;-60
2022/02/16 06:04:01;;;;;;;1.77;0.93;;;9.20;99.90;;;;;;5032205;28;20206;-62
2022/02/16 06:06:28;;;;;;;1.00;0.67;;;9.20;99.90;;;;;;5031588;28;20242;-60
2022/02/16 06:08:55;;;;;;;1.37;0.70;;;9.20;99.90;;;;;;5032185;28;20210;-60
2022/02/16 06:11:22;;;;;;;1.13;0.20;;;9.30;99.90;;;;;;5031875;28;20206;-59
2022/02/16 06:13:48;;;;;;;0.83;0.30;;;9.20;99.90;;;;;;5031744;28;20218;-60
2022/02/16 06:16:15;;;;;;;0.60;0.50;;;9.20;99.90;;;;;;5031169;28;20233;-59
2022/02/16 06:18:42;;;;;;;0.87;0.40;;;9.30;99.90;;;;;;5031601;28;20199;-59
2022/02/16 06:21:10;;;;;;;0.77;0.30;;;9.40;99.90;;;;;;5035531;28;20210;-58
2022/02/16 06:23:37;;;;;;;0.57;0.37;;;9.40;99.90;;;;;;5035290;28;20221;-60
2022/02/16 06:26:03;;;;;;;1.00;0.80;;;9.50;99.90;;;;;;5035095;28;20261;-60
2022/02/16 06:28:30;;;;;;;1.10;0.87;;;9.50;99.90;;;;;;5034921;28;20210;-59
2022/02/16 06:30:57;;;;;;;0.50;0.33;;;9.50;99.90;;;;;;5035014;28;20592;-59
2022/02/16 06:33:23;;;;;;;0.80;0.50;;;9.50;99.90;;;;;;5035401;28;20238;-59
2022/02/16 06:35:50;;;;;;;0.37;0.20;;;9.50;99.90;;;;;;5034603;28;20678;-59
2022/02/16 06:38:18;;;;;;;4.33;2.13;;;9.50;99.90;;;;;;5035154;28;20210;-59
2022/02/16 06:40:46;;;;;;;1.07;0.73;;;9.40;99.90;;;;;;5034994;28;20573;-59
2022/02/16 06:43:15;;;;;;;0.40;0.40;;;9.40;99.90;;;;;;5035009;28;20222;-59
2022/02/16 06:45:42;;;;;;;0.83;0.40;;;9.40;99.90;;;;;;5034632;28;20213;-59
2022/02/16 06:48:09;;;;;;;0.90;0.47;;;9.40;99.90;;;;;;5034890;28;20229;-59
2022/02/16 06:50:35;;;;;;;0.67;0.20;;;9.40;99.90;;;;;;5034548;28;20215;-60
2022/02/16 06:53:02;;;;;;;2.13;0.43;;;9.50;99.90;;;;;;5034907;28;20206;-58
2022/02/16 06:55:30;;;;;;;0.73;0.50;;;9.60;99.90;;;;;;5034335;28;20682;-59
2022/02/16 06:57:57;;;;;;;1.97;0.37;;;9.70;99.90;;;;;;5034073;28;20230;-59
2022/02/16 07:00:24;;;;;;;0.47;0.40;;;9.80;99.90;;;;;;5034772;28;20206;-59
2022/02/16 07:02:51;;;;;;;1.30;0.90;;;9.80;99.90;;;;;;5034457;28;20233;-59
2022/02/16 07:05:18;;;;;;;0.63;0.37;;;9.90;99.90;;;;;;5034295;28;20214;-61
2022/02/16 07:07:45;;;;;;;1.03;0.40;;;9.90;99.90;;;;;;5034365;28;20234;-59
2022/02/16 07:10:11;;;;;;;1.17;0.30;;;9.80;99.90;;;;;;5034384;28;20638;-60
2022/02/16 07:12:40;;;;;;;0.63;0.40;;;9.70;99.90;;;;;;5034603;28;20285;-59
2022/02/16 07:15:11;;;;;;;0.30;0.20;;;9.70;99.90;;;;;;5034135;28;20206;-60
2022/02/16 07:17:39;;;;;;;0.53;0.30;;;9.70;99.90;;;;;;5034439;28;20280;-59
2022/02/16 07:20:08;;;;;;;0.93;0.23;;;9.70;99.90;;;;;;5034534;28;20230;-59
2022/02/16 07:22:39;;;;;;;0.50;0.20;;;9.80;99.90;;;;;;5034299;28;20225;-59
2022/02/16 07:25:06;;;;;;;0.73;0.63;;;9.90;99.90;;;;;;5034328;28;20587;-60
2022/02/16 07:27:33;;;;;;;0.73;0.57;;;9.90;99.90;;;;;;5034256;28;20226;-60
2022/02/16 07:30:01;;;;;;;1.60;1.20;;;10.00;99.90;;;;;;5034377;28;20217;-58
2022/02/16 07:32:28;;;;;;;1.43;0.63;;;9.90;99.90;;;;;;5033669;28;20202;-58
2022/02/16 07:34:54;;;;;;;0.33;0.30;;;10.00;99.90;;;;;;5033943;28;20716;-60
2022/02/16 07:37:21;;;;;;;0.80;0.47;;;10.00;99.90;;;;;;5033589;28;20230;-59
2022/02/16 07:39:48;;;;;;;6.80;3.90;;;10.10;99.90;;;;;;5033969;28;20206;-59
2022/02/16 07:42:14;;;;;;;1.20;0.40;;;10.10;99.90;;;;;;5034092;28;20233;-60
2022/02/16 07:44:42;;;;;;;0.30;0.17;;;9.90;99.90;;;;;;5034143;28;20300;-59
2022/02/16 07:47:10;;;;;;;1.03;0.40;;;9.90;99.90;;;;;;5034062;28;20226;-59
2022/02/16 07:49:37;;;;;;;1.03;0.40;;;9.90;99.90;;;;;;5033845;28;20210;-60
2022/02/16 07:52:04;;;;;;;0.60;0.40;;;9.80;99.90;;;;;;5033523;28;20548;-60
2022/02/16 07:54:31;;;;;;;1.07;0.40;;;9.80;99.90;;;;;;5033649;28;20604;-59
2022/02/16 07:56:58;;;;;;;0.40;0.30;;;9.80;99.90;;;;;;5033207;28;20229;-60
2022/02/16 07:59:25;;;;;;;0.60;0.50;;;9.90;99.90;;;;;;5033618;28;20282;-60
2022/02/16 08:01:52;;;;;;;4.70;1.23;;;9.90;99.90;;;;;;5033490;28;20226;-59
2022/02/16 08:04:20;;;;;;;1.63;1.10;;;9.90;99.90;;;;;;5033369;28;20217;-59
2022/02/16 08:06:48;;;;;;;0.33;0.20;;;10.00;99.90;;;;;;5033087;28;20244;-59
2022/02/16 08:09:15;;;;;;;0.60;0.30;;;10.10;99.90;;;;;;5033198;28;20289;-59
2022/02/16 08:11:43;;;;;;;1.10;0.37;;;10.10;99.90;;;;;;5033525;28;20210;-59
2022/02/16 08:14:11;;;;;;;0.50;0.50;;;10.00;99.90;;;;;;5033167;28;20577;-59
2022/02/16 08:16:39;;;;;;;3.03;0.90;;;10.10;99.90;;;;;;5032815;28;20226;-60
2022/02/16 08:19:07;;;;;;;0.77;0.50;;;10.10;99.90;;;;;;5032908;28;20256;-60
2022/02/16 08:21:35;;;;;;;0.93;0.47;;;10.20;99.90;;;;;;5033260;28;20210;-59
2022/02/16 08:24:03;;;;;;;0.60;0.37;;;10.10;99.90;;;;;;5032937;28;20584;-58
2022/02/16 08:26:30;;;;;;;9.47;7.60;;;10.10;99.90;;;;;;5032752;28;20230;-60
2022/02/16 08:28:56;;;;;;;2.20;1.23;;;10.20;99.90;;;;;;5033135;28;20210;-58
2022/02/16 08:31:23;;;;;;;1.27;0.87;;;10.30;99.90;;;;;;5032836;28;20210;-58
2022/02/16 08:33:50;;;;;;;1.60;0.67;;;10.20;99.90;;;;;;5033119;28;20261;-59
2022/02/16 08:36:17;;;;;;;0.97;0.60;;;10.10;99.90;;;;;;5032743;28;20324;-59
2022/02/16 08:38:46;;;;;;;0.80;0.50;;;10.10;99.90;;;;;;5032837;28;20590;-58
2022/02/16 08:41:13;;;;;;;0.73;0.50;;;10.10;99.90;;;;;;5032593;28;20206;-61
2022/02/16 08:43:40;;;;;;;1.37;0.80;;;10.10;99.90;;;;;;5018016;28;20318;-58
2022/02/16 08:46:08;;;;;;;3.37;2.37;;;10.10;99.90;;;;;;5011605;28;20203;-57
2022/02/16 08:48:35;;;;;;;2.97;1.97;;;10.10;99.90;;;;;;5012871;28;20346;-58
2022/02/16 08:51:01;;;;;;;4.33;1.37;;;10.20;99.90;;;;;;5022459;28;20206;-58
2022/02/16 08:53:29;;;;;;;3.20;2.60;;;10.10;99.90;;;;;;5032513;28;20210;-58
2022/02/16 08:55:58;;;;;;;4.53;2.50;;;10.10;99.90;;;;;;5031774;28;20313;-58
2022/02/16 08:58:25;;;;;;;2.47;1.10;;;10.20;99.90;;;;;;5032641;28;20205;-58
2022/02/16 09:00:51;;;;;;;1.63;0.60;;;10.20;99.90;;;;;;5032098;28;20674;-58
2022/02/16 09:03:19;;;;;;;0.87;0.50;;;10.30;99.90;;;;;;5032394;28;20237;-58
2022/02/16 09:05:45;;;;;;;0.77;0.50;;;10.40;99.90;;;;;;5032238;28;20297;-58
2022/02/16 09:08:12;;;;;;;0.90;0.50;;;10.40;99.90;;;;;;5107427;22;20239;-56
2022/02/16 09:10:39;;;;;;;0.97;0.70;;;10.50;99.90;;;;;;5091984;28;20200;-58
2022/02/16 09:13:07;;;;;;;0.80;0.50;;;10.60;99.90;;;;;;5091910;28;20207;-56
2022/02/16 09:15:34;;;;;;;0.60;0.47;;;10.70;99.90;;;;;;5091883;28;20208;-57
2022/02/16 09:18:01;;;;;;;1.20;0.50;;;10.70;99.90;;;;;;5091692;28;20727;-58
2022/02/16 09:20:28;;;;;;;0.77;0.60;;;10.70;99.90;;;;;;5092256;28;20208;-56
2022/02/16 09:22:55;;;;;;;1.80;0.63;;;10.90;99.90;;;;;;5092208;28;20227;-57
2022/02/16 09:25:22;;;;;;;1.07;0.50;;;10.90;99.90;;;;;;5091817;28;20204;-58
2022/02/16 09:27:48;;;;;;;0.70;0.70;;;11.00;99.90;;;;;;5091808;28;20232;-58
2022/02/16 09:30:17;;;;;;;1.13;0.50;;;11.00;99.90;;;;;;5091958;28;20204;-59
2022/02/16 09:32:43;;;;;;;1.17;0.60;;;11.00;99.90;;;;;;5091877;28;20208;-59
2022/02/16 09:35:10;;;;;;;1.13;0.57;;;11.00;99.90;;;;;;5091943;28;20577;-57
2022/02/16 09:37:37;;;;;;;1.67;0.37;;;11.00;99.90;;;;;;5091677;28;20223;-57
2022/02/16 09:40:06;;;;;;;0.40;0.37;;;10.90;99.90;;;;;;5091679;28;20204;-57
2022/02/16 09:42:33;;;;;;;0.37;0.30;;;10.80;99.90;;;;;;5091444;28;20224;-57
2022/02/16 09:45:01;;;;;;;0.80;0.40;;;10.80;99.90;;;;;;5091933;28;20556;-58
2022/02/16 09:47:30;;;;;;;1.20;0.50;;;10.70;99.90;;;;;;5091486;28;20228;-57
2022/02/16 09:49:58;;;;;;;2.13;0.50;;;10.80;99.90;;;;;;5091587;28;20666;-57
2022/02/16 09:52:25;;;;;;;0.83;0.50;;;10.90;99.90;;;;;;5091587;28;20196;-57
2022/02/16 09:54:52;;;;;;;0.73;0.57;;;11.00;99.90;;;;;;5092987;28;20726;-57
2022/02/16 09:57:20;;;;;;;0.63;0.23;;;11.10;99.90;;;;;;5095321;28;20573;-57
2022/02/16 09:59:48;;;;;;;4.67;0.87;;;11.10;99.90;;;;;;5095679;28;20204;-57
2022/02/16 10:02:16;;;;;;;0.87;0.70;;;11.10;99.90;;;;;;5095871;28;20212;-57
2022/02/16 10:04:56;;;;;;;1.97;0.60;;;11.10;99.90;;;;;;5096243;28;20208;-57
2022/02/16 10:07:24;;;;;;;0.60;0.50;;;11.00;99.90;;;;;;5094998;28;20659;-57
2022/02/16 10:09:52;;;;;;;2.27;0.30;;;11.10;99.90;;;;;;5095183;28;20211;-57
2022/02/16 10:12:20;;;;;;;0.87;0.40;;;11.00;99.90;;;;;;5095576;28;20208;-57
2022/02/16 10:14:51;;;;;;;0.50;0.40;;;11.00;99.90;;;;;;5095536;28;20204;-57
2022/02/16 10:17:20;;;;;;;1.17;0.50;;;11.00;99.90;;;;;;5094991;28;20224;-57
2022/02/16 10:19:48;;;;;;;2.07;0.57;;;11.10;99.90;;;;;;5095120;28;20618;-57
2022/02/16 10:22:17;;;;;;;2.37;0.90;;;11.20;99.90;;;;;;5095170;28;20240;-57
2022/02/16 10:24:44;;;;;;;1.47;0.50;;;11.30;99.90;;;;;;5095306;28;20200;-57
2022/02/16 10:27:12;;;;;;;0.50;0.30;;;11.40;99.90;;;;;;5095129;28;20311;-57
2022/02/16 10:29:40;;;;;;;0.67;0.33;;;11.30;99.90;;;;;;5095420;28;20207;-57
2022/02/16 10:32:07;;;;;;;0.63;0.30;;;11.30;99.90;;;;;;5095251;28;20680;-57
2022/02/16 10:34:48;;;;;;;0.90;0.40;;;11.30;99.90;;;;;;5094837;28;20245;-57
2022/02/16 10:37:17;;;;;;;0.43;0.30;;;11.30;99.90;;;;;;5094805;28;20230;-57
2022/02/16 10:40:06;;;;;;;1.57;0.40;;;11.20;99.90;;;;;;5094781;28;20212;-57
2022/02/16 10:42:33;;;;;;;0.43;0.43;;;11.20;99.90;;;;;;5094954;28;20236;-57
2022/02/16 10:45:09;;;;;;;0.30;0.30;;;11.30;99.90;;;;;;5094821;28;20208;-60
2022/02/16 10:47:54;;;;;;;2.37;0.53;;;11.30;99.90;;;;;;5094621;28;20228;-62
2022/02/16 10:50:22;;;;;;;1.00;0.73;;;11.50;99.90;;;;;;5094815;28;20204;-63
2022/02/16 10:52:55;;;;;;;1.17;0.50;;;11.50;99.90;;;;;;5094700;28;20197;-65
2022/02/16 10:55:37;;;;;;;1.90;1.40;;;11.40;99.90;;;;;;5094344;28;20258;-61
2022/02/16 10:58:05;;;;;;;1.33;0.20;;;11.40;99.90;;;;;;5094768;28;20462;-57
2022/02/16 11:00:34;;;;;;;0.90;0.50;;;11.40;99.90;;;;;;5094742;28;20212;-60
2022/02/16 11:03:02;;;;;;;0.47;0.37;;;11.50;99.90;;;;;;5094701;28;20569;-59
2022/02/16 11:05:30;;;;;;;0.30;0.30;;;11.60;99.90;;;;;;5093626;28;20205;-58
2022/02/16 11:07:59;;;;;;;0.50;0.20;;;11.60;99.90;;;;;;5093900;28;20243;-58
2022/02/16 11:10:27;;;;;;;0.90;0.30;;;11.70;99.90;;;;;;5094825;28;20603;-58
2022/02/16 11:12:55;;;;;;;0.50;0.50;;;11.80;99.90;;;;;;5094688;28;20203;-59
2022/02/16 11:15:22;;;;;;;1.40;0.60;;;11.80;99.90;;;;;;5094347;28;20208;-58
2022/02/16 11:17:49;;;;;;;0.53;0.20;;;12.00;99.90;;;;;;5093964;28;20277;-58
2022/02/16 11:20:21;;;;;;;0.93;0.50;;;12.00;99.90;;;;;;5093974;28;20212;-58
2022/02/16 11:22:50;;;;;;;3.03;2.77;;;12.00;99.90;;;;;;5094024;28;20698;-59
2022/02/16 11:25:29;;;;;;;0.93;0.57;;;12.10;99.90;;;;;;5094076;28;20540;-59
2022/02/16 11:27:56;;;;;;;0.40;0.40;;;12.00;99.90;;;;;;5093984;28;20224;-59
2022/02/16 11:30:31;;;;;;;0.20;0.20;;;11.90;99.90;;;;;;5093794;28;20716;-58
2022/02/16 11:33:11;;;;;;;0.97;0.63;;;11.90;99.90;;;;;;5093820;28;20219;-57
2022/02/16 11:35:52;;;;;;;0.47;0.30;;;11.80;99.90;;;;;;5093762;28;20207;-60
2022/02/16 11:38:21;;;;;;;0.47;0.40;;;11.80;99.90;;;;;;5093695;28;20230;-58
2022/02/16 11:40:52;;;;;;;0.77;0.57;;;11.80;99.90;;;;;;5093498;28;20215;-58
2022/02/16 11:43:22;;;;;;;0.97;0.40;;;12.00;99.90;;;;;;5093477;28;20223;-58
2022/02/16 11:45:56;;;;;;;0.60;0.40;;;12.00;99.90;;;;;;5093691;28;20208;-58
2022/02/16 11:48:37;;;;;;;0.50;0.50;;;12.00;99.90;;;;;;5093895;28;20231;-58
2022/02/16 11:51:34;;;;;;;1.17;0.80;;;12.00;99.90;;;;;;5093716;28;20212;-58
2022/02/16 11:54:34;;;;;;;0.93;0.40;;;12.10;99.90;;;;;;5093450;28;20725;-57
2022/02/16 11:57:38;;;;;;;0.33;0.33;;;12.30;99.90;;;;;;5093193;28;20685;-58
2022/02/16 12:00:11;;;;;;;0.87;0.50;;;12.40;99.90;;;;;;5093453;28;20207;-58
2022/02/16 12:03:25;;;;;;;0.90;0.80;;;12.50;99.90;;;;;;5093423;28;20704;-59
2022/02/16 12:06:08;;;;;;;0.50;0.30;;;12.60;99.90;;;;;;5093096;28;20201;-59
2022/02/16 12:08:52;;;;;;;0.83;0.67;;;12.70;99.90;;;;;;5093271;28;20290;-58
2022/02/16 12:11:22;;;;;;;1.50;0.80;;;12.80;99.90;;;;;;5093034;28;20696;-58
2022/02/16 12:13:54;;;;;;;2.07;1.47;;;12.80;99.90;;;;;;5092804;28;20245;-60
2022/02/16 12:16:24;;;;;;;0.70;0.50;;;12.70;99.90;;;;;;5092680;28;20246;-59
2022/02/16 12:18:51;;;;;;;0.83;0.80;;;12.80;99.90;;;;;;5092487;28;20200;-59
2022/02/16 12:21:24;;;;;;;0.97;0.60;;;12.80;99.90;;;;;;5093001;28;20695;-59
2022/02/16 12:23:57;;;;;;;2.77;2.40;;;12.90;99.90;;;;;;5092663;28;20259;-59
2022/02/16 12:26:24;;;;;;;0.83;0.63;;;13.00;99.90;;;;;;5092730;28;20707;-59
2022/02/16 12:28:58;;;;;;;1.30;0.63;;;13.10;99.90;;;;;;5092631;28;20293;-59
2022/02/16 12:31:27;;;;;;;1.67;0.60;;;13.30;99.90;;;;;;5092523;28;20660;-60
2022/02/16 12:33:57;;;;;;;0.57;0.40;;;13.40;99.90;;;;;;5092660;28;20579;-60
2022/02/16 12:36:25;;;;;;;1.57;0.53;;;13.30;99.90;;;;;;5092436;28;20204;-59
2022/02/16 12:38:55;;;;;;;0.70;0.70;;;13.40;99.90;;;;;;5092691;28;20623;-59
2022/02/16 12:41:22;;;;;;;1.60;1.10;;;13.50;99.90;;;;;;5092589;28;20299;-60
2022/02/16 12:43:56;;;;;;;0.80;0.70;;;13.60;99.90;;;;;;5092051;28;20650;-59
2022/02/16 12:46:25;;;;;;;2.60;1.50;;;13.50;99.90;;;;;;5092186;28;20212;-60
2022/02/16 12:48:52;;;;;;;1.57;0.90;;;13.40;99.90;;;;;;5092304;28;20215;-59
2022/02/16 12:51:28;;;;;;;1.93;1.40;;;13.40;99.90;;;;;;5092221;28;20223;-59
2022/02/16 12:53:57;;;;;;;0.80;0.67;;;13.30;99.90;;;;;;5092121;28;20199;-59
2022/02/16 12:56:25;;;;;;;3.13;0.80;;;13.20;99.90;;;;;;5091721;28;20219;-60
2022/02/16 12:58:51;;;;;;;2.07;0.80;;;13.10;99.90;;;;;;5092151;28;20672;-59